sensor_id;sensor_type;location;lat;lon;timestamp;temperature;humidity
75621;DHT22;64574;48.506;-2.750;2023-05-10T00:01:58;12.20;73.10
75621;DHT22;64574;48.506;-2.750;2023-05-10T00:04:24;12.00;73.40
75621;DHT22;64574;48.506;-2.750;2023-05-10T00:06:53;12.20;72.80
75621;DHT22;64574;48.506;-2.750;2023-05-10T00:09:18;12.20;72.40
75621;DHT22;64574;48.506;-2.750;2023-05-10T00:11:44;12.00;72.90
75621;DHT22;64574;48.506;-2.750;2023-05-10T00:14:09;12.10;73.10
75621;DHT22;64574;48.506;-2.750;2023-05-10T00:16:35;12.10;72.90
75621;DHT22;64574;48.506;-2.750;2023-05-10T00:19:01;12.10;72.70
75621;DHT22;64574;48.506;-2.750;2023-05-10T00:21:26;12.10;73.00
75621;DHT22;64574;48.506;-2.750;2023-05-10T00:23:53;12.20;72.60
75621;DHT22;64574;48.506;-2.750;2023-05-10T00:26:19;12.20;72.50
75621;DHT22;64574;48.506;-2.750;2023-05-10T00:28:45;12.20;72.50
75621;DHT22;64574;48.506;-2.750;2023-05-10T00:31:10;12.10;72.90
75621;DHT22;64574;48.506;-2.750;2023-05-10T00:33:36;12.10;72.50
75621;DHT22;64574;48.506;-2.750;2023-05-10T00:36:02;12.10;72.80
75621;DHT22;64574;48.506;-2.750;2023-05-10T00:38:27;12.00;72.90
75621;DHT22;64574;48.506;-2.750;2023-05-10T00:40:53;12.00;73.30
75621;DHT22;64574;48.506;-2.750;2023-05-10T00:43:18;12.10;73.00
75621;DHT22;64574;48.506;-2.750;2023-05-10T00:45:44;12.10;73.10
75621;DHT22;64574;48.506;-2.750;2023-05-10T00:48:10;12.10;73.00
75621;DHT22;64574;48.506;-2.750;2023-05-10T00:50:35;12.10;73.10
75621;DHT22;64574;48.506;-2.750;2023-05-10T00:53:02;12.20;72.80
75621;DHT22;64574;48.506;-2.750;2023-05-10T00:55:28;12.10;73.20
75621;DHT22;64574;48.506;-2.750;2023-05-10T00:57:54;12.10;73.20
75621;DHT22;64574;48.506;-2.750;2023-05-10T01:00:20;12.10;73.20
75621;DHT22;64574;48.506;-2.750;2023-05-10T01:02:46;12.20;73.20
75621;DHT22;64574;48.506;-2.750;2023-05-10T01:05:12;12.10;73.40
75621;DHT22;64574;48.506;-2.750;2023-05-10T01:07:38;12.10;73.20
75621;DHT22;64574;48.506;-2.750;2023-05-10T01:10:08;12.10;73.30
75621;DHT22;64574;48.506;-2.750;2023-05-10T01:12:38;12.10;73.30
75621;DHT22;64574;48.506;-2.750;2023-05-10T01:15:09;12.10;73.20
75621;DHT22;64574;48.506;-2.750;2023-05-10T01:17:38;12.10;73.30
75621;DHT22;64574;48.506;-2.750;2023-05-10T01:20:05;12.00;73.70
75621;DHT22;64574;48.506;-2.750;2023-05-10T01:31:21;12.00;73.90
75621;DHT22;64574;48.506;-2.750;2023-05-10T01:36:46;12.00;73.60
75621;DHT22;64574;48.506;-2.750;2023-05-10T01:39:42;12.00;73.90
75621;DHT22;64574;48.506;-2.750;2023-05-10T01:42:13;11.90;74.10
75621;DHT22;64574;48.506;-2.750;2023-05-10T01:44:46;11.90;74.10
75621;DHT22;64574;48.506;-2.750;2023-05-10T01:47:33;11.90;74.50
75621;DHT22;64574;48.506;-2.750;2023-05-10T01:50:03;11.80;74.70
75621;DHT22;64574;48.506;-2.750;2023-05-10T01:52:35;11.80;74.60
75621;DHT22;64574;48.506;-2.750;2023-05-10T01:55:05;11.90;74.40
75621;DHT22;64574;48.506;-2.750;2023-05-10T01:57:39;11.90;74.40
75621;DHT22;64574;48.506;-2.750;2023-05-10T02:00:12;11.90;74.30
75621;DHT22;64574;48.506;-2.750;2023-05-10T02:02:40;11.90;74.40
75621;DHT22;64574;48.506;-2.750;2023-05-10T02:05:08;11.90;74.20
75621;DHT22;64574;48.506;-2.750;2023-05-10T02:07:35;11.90;74.30
75621;DHT22;64574;48.506;-2.750;2023-05-10T02:10:03;11.70;74.50
75621;DHT22;64574;48.506;-2.750;2023-05-10T02:12:31;11.80;74.60
75621;DHT22;64574;48.506;-2.750;2023-05-10T02:14:59;11.90;74.00
75621;DHT22;64574;48.506;-2.750;2023-05-10T02:17:27;11.70;74.60
75621;DHT22;64574;48.506;-2.750;2023-05-10T02:19:55;11.70;74.70
75621;DHT22;64574;48.506;-2.750;2023-05-10T02:22:22;11.70;74.80
75621;DHT22;64574;48.506;-2.750;2023-05-10T02:24:50;11.90;75.00
75621;DHT22;64574;48.506;-2.750;2023-05-10T02:27:17;11.90;74.90
75621;DHT22;64574;48.506;-2.750;2023-05-10T02:29:43;11.80;75.00
75621;DHT22;64574;48.506;-2.750;2023-05-10T02:32:10;11.80;75.20
75621;DHT22;64574;48.506;-2.750;2023-05-10T02:34:36;11.90;75.30
75621;DHT22;64574;48.506;-2.750;2023-05-10T02:37:02;11.90;75.50
75621;DHT22;64574;48.506;-2.750;2023-05-10T02:39:29;11.80;76.00
75621;DHT22;64574;48.506;-2.750;2023-05-10T02:41:57;11.80;76.10
75621;DHT22;64574;48.506;-2.750;2023-05-10T02:44:23;11.80;76.10
75621;DHT22;64574;48.506;-2.750;2023-05-10T02:46:50;11.90;75.90
75621;DHT22;64574;48.506;-2.750;2023-05-10T02:49:16;11.70;76.00
75621;DHT22;64574;48.506;-2.750;2023-05-10T02:51:49;11.70;76.20
75621;DHT22;64574;48.506;-2.750;2023-05-10T02:54:20;11.70;76.40
75621;DHT22;64574;48.506;-2.750;2023-05-10T02:56:57;11.80;76.20
75621;DHT22;64574;48.506;-2.750;2023-05-10T02:59:23;11.80;76.10
75621;DHT22;64574;48.506;-2.750;2023-05-10T03:01:49;11.70;76.10
75621;DHT22;64574;48.506;-2.750;2023-05-10T03:04:14;11.70;76.60
75621;DHT22;64574;48.506;-2.750;2023-05-10T03:06:40;11.90;75.90
75621;DHT22;64574;48.506;-2.750;2023-05-10T03:09:06;11.90;75.80
75621;DHT22;64574;48.506;-2.750;2023-05-10T03:22:11;11.90;75.50
75621;DHT22;64574;48.506;-2.750;2023-05-10T03:24:39;11.90;75.50
75621;DHT22;64574;48.506;-2.750;2023-05-10T03:27:08;11.90;75.60
75621;DHT22;64574;48.506;-2.750;2023-05-10T03:29:33;11.90;75.40
75621;DHT22;64574;48.506;-2.750;2023-05-10T03:32:00;11.90;75.80
75621;DHT22;64574;48.506;-2.750;2023-05-10T03:34:26;11.90;75.80
75621;DHT22;64574;48.506;-2.750;2023-05-10T03:36:52;11.90;75.70
75621;DHT22;64574;48.506;-2.750;2023-05-10T03:39:17;11.90;75.70
75621;DHT22;64574;48.506;-2.750;2023-05-10T03:41:43;11.90;76.20
75621;DHT22;64574;48.506;-2.750;2023-05-10T03:44:08;12.00;76.00
75621;DHT22;64574;48.506;-2.750;2023-05-10T03:46:34;12.10;75.40
75621;DHT22;64574;48.506;-2.750;2023-05-10T03:49:00;12.10;75.60
75621;DHT22;64574;48.506;-2.750;2023-05-10T03:51:25;12.00;75.70
75621;DHT22;64574;48.506;-2.750;2023-05-10T03:53:54;12.00;76.00
75621;DHT22;64574;48.506;-2.750;2023-05-10T03:56:20;11.90;76.20
75621;DHT22;64574;48.506;-2.750;2023-05-10T03:58:46;11.80;77.20
75621;DHT22;64574;48.506;-2.750;2023-05-10T04:01:12;11.90;77.00
75621;DHT22;64574;48.506;-2.750;2023-05-10T04:03:37;11.90;77.00
75621;DHT22;64574;48.506;-2.750;2023-05-10T04:06:04;11.90;77.00
75621;DHT22;64574;48.506;-2.750;2023-05-10T04:08:29;11.90;77.30
75621;DHT22;64574;48.506;-2.750;2023-05-10T04:11:07;11.90;77.30
75621;DHT22;64574;48.506;-2.750;2023-05-10T04:13:33;11.90;77.30
75621;DHT22;64574;48.506;-2.750;2023-05-10T04:15:59;11.90;77.20
75621;DHT22;64574;48.506;-2.750;2023-05-10T04:18:25;11.90;77.60
75621;DHT22;64574;48.506;-2.750;2023-05-10T04:20:50;11.90;77.50
75621;DHT22;64574;48.506;-2.750;2023-05-10T04:23:16;11.90;77.70
75621;DHT22;64574;48.506;-2.750;2023-05-10T04:25:42;11.90;77.60
75621;DHT22;64574;48.506;-2.750;2023-05-10T04:28:08;11.90;77.90
75621;DHT22;64574;48.506;-2.750;2023-05-10T04:30:34;11.90;77.90
75621;DHT22;64574;48.506;-2.750;2023-05-10T04:33:00;11.90;77.90
75621;DHT22;64574;48.506;-2.750;2023-05-10T04:35:27;11.90;77.80
75621;DHT22;64574;48.506;-2.750;2023-05-10T04:37:54;11.90;78.00
75621;DHT22;64574;48.506;-2.750;2023-05-10T04:40:19;11.90;77.90
75621;DHT22;64574;48.506;-2.750;2023-05-10T04:42:45;11.90;77.90
75621;DHT22;64574;48.506;-2.750;2023-05-10T04:45:12;11.90;77.90
75621;DHT22;64574;48.506;-2.750;2023-05-10T04:47:37;11.90;77.80
75621;DHT22;64574;48.506;-2.750;2023-05-10T04:50:04;11.90;77.80
75621;DHT22;64574;48.506;-2.750;2023-05-10T04:52:30;11.90;78.10
75621;DHT22;64574;48.506;-2.750;2023-05-10T04:54:55;11.80;78.20
75621;DHT22;64574;48.506;-2.750;2023-05-10T04:57:21;11.80;78.40
75621;DHT22;64574;48.506;-2.750;2023-05-10T04:59:47;11.70;78.50
75621;DHT22;64574;48.506;-2.750;2023-05-10T05:02:13;11.70;78.70
75621;DHT22;64574;48.506;-2.750;2023-05-10T05:04:39;11.80;78.50
75621;DHT22;64574;48.506;-2.750;2023-05-10T05:07:04;11.70;78.50
75621;DHT22;64574;48.506;-2.750;2023-05-10T05:09:30;11.80;78.30
75621;DHT22;64574;48.506;-2.750;2023-05-10T05:11:57;11.90;78.20
75621;DHT22;64574;48.506;-2.750;2023-05-10T05:14:23;11.90;77.90
75621;DHT22;64574;48.506;-2.750;2023-05-10T05:16:50;11.90;78.20
75621;DHT22;64574;48.506;-2.750;2023-05-10T05:19:16;12.00;78.00
75621;DHT22;64574;48.506;-2.750;2023-05-10T05:21:42;12.00;77.60
75621;DHT22;64574;48.506;-2.750;2023-05-10T05:24:07;12.00;77.70
75621;DHT22;64574;48.506;-2.750;2023-05-10T05:26:33;12.00;77.90
75621;DHT22;64574;48.506;-2.750;2023-05-10T05:28:59;12.00;78.00
75621;DHT22;64574;48.506;-2.750;2023-05-10T05:31:24;12.00;78.00
75621;DHT22;64574;48.506;-2.750;2023-05-10T05:33:50;12.10;77.80
75621;DHT22;64574;48.506;-2.750;2023-05-10T05:36:15;12.00;77.80
75621;DHT22;64574;48.506;-2.750;2023-05-10T05:38:41;12.10;77.80
75621;DHT22;64574;48.506;-2.750;2023-05-10T05:41:08;12.10;77.70
75621;DHT22;64574;48.506;-2.750;2023-05-10T05:43:33;12.10;78.20
75621;DHT22;64574;48.506;-2.750;2023-05-10T05:45:59;12.10;78.20
75621;DHT22;64574;48.506;-2.750;2023-05-10T05:48:25;12.00;78.30
75621;DHT22;64574;48.506;-2.750;2023-05-10T05:50:54;12.00;78.70
75621;DHT22;64574;48.506;-2.750;2023-05-10T05:53:20;12.00;78.80
75621;DHT22;64574;48.506;-2.750;2023-05-10T05:55:54;12.00;79.10
75621;DHT22;64574;48.506;-2.750;2023-05-10T05:58:21;12.10;79.10
75621;DHT22;64574;48.506;-2.750;2023-05-10T06:00:46;12.10;79.00
75621;DHT22;64574;48.506;-2.750;2023-05-10T06:03:12;12.10;79.10
75621;DHT22;64574;48.506;-2.750;2023-05-10T06:05:37;12.10;79.50
75621;DHT22;64574;48.506;-2.750;2023-05-10T06:08:03;12.00;79.80
75621;DHT22;64574;48.506;-2.750;2023-05-10T06:10:29;11.90;80.30
75621;DHT22;64574;48.506;-2.750;2023-05-10T06:12:55;11.90;80.50
75621;DHT22;64574;48.506;-2.750;2023-05-10T06:15:21;11.90;80.80
75621;DHT22;64574;48.506;-2.750;2023-05-10T06:17:47;11.90;80.70
75621;DHT22;64574;48.506;-2.750;2023-05-10T06:20:15;12.00;80.60
75621;DHT22;64574;48.506;-2.750;2023-05-10T06:22:41;12.00;80.70
75621;DHT22;64574;48.506;-2.750;2023-05-10T06:25:07;12.00;80.40
75621;DHT22;64574;48.506;-2.750;2023-05-10T06:27:33;12.10;80.80
75621;DHT22;64574;48.506;-2.750;2023-05-10T06:29:58;12.10;80.40
75621;DHT22;64574;48.506;-2.750;2023-05-10T06:32:25;12.20;80.10
75621;DHT22;64574;48.506;-2.750;2023-05-10T06:34:50;12.20;79.90
75621;DHT22;64574;48.506;-2.750;2023-05-10T06:37:16;12.30;79.50
75621;DHT22;64574;48.506;-2.750;2023-05-10T06:39:41;12.40;80.00
75621;DHT22;64574;48.506;-2.750;2023-05-10T06:42:07;12.50;79.50
75621;DHT22;64574;48.506;-2.750;2023-05-10T06:44:33;12.40;80.10
75621;DHT22;64574;48.506;-2.750;2023-05-10T06:46:58;12.30;80.10
75621;DHT22;64574;48.506;-2.750;2023-05-10T06:49:24;12.30;80.30
75621;DHT22;64574;48.506;-2.750;2023-05-10T06:51:50;12.50;79.90
75621;DHT22;64574;48.506;-2.750;2023-05-10T06:54:15;12.40;80.20
75621;DHT22;64574;48.506;-2.750;2023-05-10T06:56:41;12.50;79.90
75621;DHT22;64574;48.506;-2.750;2023-05-10T06:59:06;12.40;79.60
75621;DHT22;64574;48.506;-2.750;2023-05-10T07:01:32;12.50;79.40
75621;DHT22;64574;48.506;-2.750;2023-05-10T07:03:58;12.40;79.60
75621;DHT22;64574;48.506;-2.750;2023-05-10T07:06:23;12.50;79.50
75621;DHT22;64574;48.506;-2.750;2023-05-10T07:08:49;12.60;78.80
75621;DHT22;64574;48.506;-2.750;2023-05-10T07:11:15;12.80;78.70
75621;DHT22;64574;48.506;-2.750;2023-05-10T07:13:40;12.70;78.30
75621;DHT22;64574;48.506;-2.750;2023-05-10T07:16:09;12.70;78.70
75621;DHT22;64574;48.506;-2.750;2023-05-10T07:18:35;12.80;78.90
75621;DHT22;64574;48.506;-2.750;2023-05-10T07:21:01;12.70;78.60
75621;DHT22;64574;48.506;-2.750;2023-05-10T07:23:27;12.70;78.80
75621;DHT22;64574;48.506;-2.750;2023-05-10T07:25:52;12.90;79.00
75621;DHT22;64574;48.506;-2.750;2023-05-10T07:28:18;12.80;78.50
75621;DHT22;64574;48.506;-2.750;2023-05-10T07:30:44;12.70;79.00
75621;DHT22;64574;48.506;-2.750;2023-05-10T07:33:11;12.70;79.00
75621;DHT22;64574;48.506;-2.750;2023-05-10T07:35:37;12.70;78.50
75621;DHT22;64574;48.506;-2.750;2023-05-10T07:38:03;12.60;79.30
75621;DHT22;64574;48.506;-2.750;2023-05-10T07:40:29;12.70;79.20
75621;DHT22;64574;48.506;-2.750;2023-05-10T07:42:55;12.90;79.00
75621;DHT22;64574;48.506;-2.750;2023-05-10T07:45:21;13.00;77.80
75621;DHT22;64574;48.506;-2.750;2023-05-10T07:47:46;12.90;77.80
75621;DHT22;64574;48.506;-2.750;2023-05-10T07:50:12;13.00;77.60
75621;DHT22;64574;48.506;-2.750;2023-05-10T07:52:38;13.00;77.80
75621;DHT22;64574;48.506;-2.750;2023-05-10T07:55:03;12.90;77.50
75621;DHT22;64574;48.506;-2.750;2023-05-10T07:57:30;12.90;78.60
75621;DHT22;64574;48.506;-2.750;2023-05-10T07:59:56;12.90;79.80
75621;DHT22;64574;48.506;-2.750;2023-05-10T08:02:21;12.80;79.20
75621;DHT22;64574;48.506;-2.750;2023-05-10T08:04:47;12.80;80.00
75621;DHT22;64574;48.506;-2.750;2023-05-10T08:07:12;12.70;79.10
75621;DHT22;64574;48.506;-2.750;2023-05-10T08:09:38;12.70;80.10
75621;DHT22;64574;48.506;-2.750;2023-05-10T08:12:04;12.90;80.40
75621;DHT22;64574;48.506;-2.750;2023-05-10T08:14:29;13.10;80.00
75621;DHT22;64574;48.506;-2.750;2023-05-10T08:16:55;13.30;79.60
75621;DHT22;64574;48.506;-2.750;2023-05-10T08:19:21;13.30;79.50
75621;DHT22;64574;48.506;-2.750;2023-05-10T08:21:48;13.10;79.30
75621;DHT22;64574;48.506;-2.750;2023-05-10T08:24:13;12.90;80.10
75621;DHT22;64574;48.506;-2.750;2023-05-10T08:26:39;13.10;80.30
75621;DHT22;64574;48.506;-2.750;2023-05-10T08:29:05;12.90;80.50
75621;DHT22;64574;48.506;-2.750;2023-05-10T08:31:31;13.00;79.30
75621;DHT22;64574;48.506;-2.750;2023-05-10T08:33:56;13.10;79.40
75621;DHT22;64574;48.506;-2.750;2023-05-10T08:36:23;13.20;78.70
75621;DHT22;64574;48.506;-2.750;2023-05-10T08:38:53;13.20;78.50
75621;DHT22;64574;48.506;-2.750;2023-05-10T08:41:22;13.50;78.00
75621;DHT22;64574;48.506;-2.750;2023-05-10T08:43:54;13.50;77.10
75621;DHT22;64574;48.506;-2.750;2023-05-10T08:46:22;13.50;77.00
75621;DHT22;64574;48.506;-2.750;2023-05-10T08:48:49;13.50;76.00
75621;DHT22;64574;48.506;-2.750;2023-05-10T08:51:20;13.70;75.00
75621;DHT22;64574;48.506;-2.750;2023-05-10T08:53:47;13.90;75.00
75621;DHT22;64574;48.506;-2.750;2023-05-10T08:56:13;13.80;74.50
75621;DHT22;64574;48.506;-2.750;2023-05-10T08:58:38;13.90;73.60
75621;DHT22;64574;48.506;-2.750;2023-05-10T09:01:05;13.90;73.20
75621;DHT22;64574;48.506;-2.750;2023-05-10T09:03:34;13.90;73.20
75621;DHT22;64574;48.506;-2.750;2023-05-10T09:06:00;14.00;73.50
75621;DHT22;64574;48.506;-2.750;2023-05-10T09:08:26;14.00;73.90
75621;DHT22;64574;48.506;-2.750;2023-05-10T09:10:53;14.00;73.10
75621;DHT22;64574;48.506;-2.750;2023-05-10T09:13:19;14.00;72.10
75621;DHT22;64574;48.506;-2.750;2023-05-10T09:15:46;14.00;71.20
75621;DHT22;64574;48.506;-2.750;2023-05-10T09:18:12;14.10;71.50
75621;DHT22;64574;48.506;-2.750;2023-05-10T09:20:38;14.30;71.50
75621;DHT22;64574;48.506;-2.750;2023-05-10T09:23:04;14.40;71.40
75621;DHT22;64574;48.506;-2.750;2023-05-10T09:25:30;14.50;71.00
75621;DHT22;64574;48.506;-2.750;2023-05-10T09:27:58;14.50;70.80
75621;DHT22;64574;48.506;-2.750;2023-05-10T09:30:28;14.40;71.20
75621;DHT22;64574;48.506;-2.750;2023-05-10T09:32:55;14.20;71.90
75621;DHT22;64574;48.506;-2.750;2023-05-10T09:35:25;14.40;71.40
75621;DHT22;64574;48.506;-2.750;2023-05-10T09:37:53;14.50;70.90
75621;DHT22;64574;48.506;-2.750;2023-05-10T09:43:02;14.40;69.70
75621;DHT22;64574;48.506;-2.750;2023-05-10T09:45:32;14.50;69.30
75621;DHT22;64574;48.506;-2.750;2023-05-10T09:47:58;14.40;70.00
75621;DHT22;64574;48.506;-2.750;2023-05-10T09:50:25;14.50;70.30
75621;DHT22;64574;48.506;-2.750;2023-05-10T09:52:59;14.50;69.20
75621;DHT22;64574;48.506;-2.750;2023-05-10T09:55:45;14.40;70.80
75621;DHT22;64574;48.506;-2.750;2023-05-10T09:58:13;14.30;70.50
75621;DHT22;64574;48.506;-2.750;2023-05-10T10:00:39;14.50;68.80
75621;DHT22;64574;48.506;-2.750;2023-05-10T10:03:06;14.50;68.50
75621;DHT22;64574;48.506;-2.750;2023-05-10T10:05:34;14.60;68.80
75621;DHT22;64574;48.506;-2.750;2023-05-10T10:08:04;14.60;67.90
75621;DHT22;64574;48.506;-2.750;2023-05-10T10:10:32;14.50;68.50
75621;DHT22;64574;48.506;-2.750;2023-05-10T10:12:57;14.60;68.20
75621;DHT22;64574;48.506;-2.750;2023-05-10T10:15:24;14.60;68.40
75621;DHT22;64574;48.506;-2.750;2023-05-10T10:17:51;14.10;70.50
75621;DHT22;64574;48.506;-2.750;2023-05-10T10:20:17;14.20;70.70
75621;DHT22;64574;48.506;-2.750;2023-05-10T10:22:43;14.30;70.50
75621;DHT22;64574;48.506;-2.750;2023-05-10T10:25:11;14.40;70.30
75621;DHT22;64574;48.506;-2.750;2023-05-10T10:30:30;14.50;71.00
75621;DHT22;64574;48.506;-2.750;2023-05-10T10:33:28;14.50;69.20
75621;DHT22;64574;48.506;-2.750;2023-05-10T10:36:00;14.30;68.80
75621;DHT22;64574;48.506;-2.750;2023-05-10T10:38:25;14.50;68.90
75621;DHT22;64574;48.506;-2.750;2023-05-10T10:41:12;14.80;68.20
75621;DHT22;64574;48.506;-2.750;2023-05-10T10:55:05;15.20;65.80
75621;DHT22;64574;48.506;-2.750;2023-05-10T11:02:55;15.00;65.10
75621;DHT22;64574;48.506;-2.750;2023-05-10T11:07:56;15.20;64.00
75621;DHT22;64574;48.506;-2.750;2023-05-10T11:10:24;15.30;63.80
75621;DHT22;64574;48.506;-2.750;2023-05-10T11:13:00;15.20;64.10
75621;DHT22;64574;48.506;-2.750;2023-05-10T11:15:39;15.10;64.40
75621;DHT22;64574;48.506;-2.750;2023-05-10T11:18:21;15.20;64.50
75621;DHT22;64574;48.506;-2.750;2023-05-10T11:20:52;15.40;62.80
75621;DHT22;64574;48.506;-2.750;2023-05-10T11:23:21;15.40;62.50
75621;DHT22;64574;48.506;-2.750;2023-05-10T11:25:47;15.30;62.90
75621;DHT22;64574;48.506;-2.750;2023-05-10T11:28:13;15.00;64.30
75621;DHT22;64574;48.506;-2.750;2023-05-10T11:30:40;14.60;66.90
75621;DHT22;64574;48.506;-2.750;2023-05-10T11:33:07;14.70;67.30
75621;DHT22;64574;48.506;-2.750;2023-05-10T11:35:40;14.60;68.30
75621;DHT22;64574;48.506;-2.750;2023-05-10T11:38:13;14.80;66.90
75621;DHT22;64574;48.506;-2.750;2023-05-10T11:40:40;14.60;68.20
75621;DHT22;64574;48.506;-2.750;2023-05-10T11:43:09;14.80;67.30
75621;DHT22;64574;48.506;-2.750;2023-05-10T11:45:36;14.90;67.00
75621;DHT22;64574;48.506;-2.750;2023-05-10T11:48:02;14.90;66.40
75621;DHT22;64574;48.506;-2.750;2023-05-10T11:50:28;15.10;65.70
75621;DHT22;64574;48.506;-2.750;2023-05-10T11:52:55;15.40;65.20
75621;DHT22;64574;48.506;-2.750;2023-05-10T11:55:22;15.20;64.90
75621;DHT22;64574;48.506;-2.750;2023-05-10T11:57:53;15.10;63.30
75621;DHT22;64574;48.506;-2.750;2023-05-10T12:00:20;15.10;62.90
75621;DHT22;64574;48.506;-2.750;2023-05-10T12:02:46;15.20;63.10
75621;DHT22;64574;48.506;-2.750;2023-05-10T12:05:12;15.00;63.50
75621;DHT22;64574;48.506;-2.750;2023-05-10T12:07:38;15.40;63.10
75621;DHT22;64574;48.506;-2.750;2023-05-10T12:10:11;15.60;63.20
75621;DHT22;64574;48.506;-2.750;2023-05-10T12:12:43;15.30;61.80
75621;DHT22;64574;48.506;-2.750;2023-05-10T12:15:23;15.20;61.30
75621;DHT22;64574;48.506;-2.750;2023-05-10T12:17:50;15.30;61.40
75621;DHT22;64574;48.506;-2.750;2023-05-10T12:20:28;15.40;61.50
75621;DHT22;64574;48.506;-2.750;2023-05-10T12:22:56;15.40;60.30
75621;DHT22;64574;48.506;-2.750;2023-05-10T12:25:24;15.60;60.70
75621;DHT22;64574;48.506;-2.750;2023-05-10T12:27:57;15.50;60.60
75621;DHT22;64574;48.506;-2.750;2023-05-10T12:30:27;15.60;60.80
75621;DHT22;64574;48.506;-2.750;2023-05-10T12:32:54;15.50;61.00
75621;DHT22;64574;48.506;-2.750;2023-05-10T12:35:24;15.60;61.00
75621;DHT22;64574;48.506;-2.750;2023-05-10T12:37:51;15.60;60.90
75621;DHT22;64574;48.506;-2.750;2023-05-10T12:40:17;15.70;60.40
75621;DHT22;64574;48.506;-2.750;2023-05-10T12:42:43;15.60;60.80
75621;DHT22;64574;48.506;-2.750;2023-05-10T12:45:12;15.60;60.80
75621;DHT22;64574;48.506;-2.750;2023-05-10T12:47:38;15.70;60.00
75621;DHT22;64574;48.506;-2.750;2023-05-10T12:50:04;16.00;58.80
75621;DHT22;64574;48.506;-2.750;2023-05-10T12:52:31;16.00;58.40
75621;DHT22;64574;48.506;-2.750;2023-05-10T12:54:57;16.00;58.10
75621;DHT22;64574;48.506;-2.750;2023-05-10T12:57:23;16.00;57.70
75621;DHT22;64574;48.506;-2.750;2023-05-10T12:59:48;15.80;56.50
75621;DHT22;64574;48.506;-2.750;2023-05-10T13:02:15;15.50;57.70
75621;DHT22;64574;48.506;-2.750;2023-05-10T13:04:41;15.60;57.60
75621;DHT22;64574;48.506;-2.750;2023-05-10T13:07:07;15.60;57.80
75621;DHT22;64574;48.506;-2.750;2023-05-10T13:09:32;15.60;58.40
75621;DHT22;64574;48.506;-2.750;2023-05-10T13:11:58;15.80;58.20
75621;DHT22;64574;48.506;-2.750;2023-05-10T13:14:24;15.80;58.20
75621;DHT22;64574;48.506;-2.750;2023-05-10T13:16:50;15.90;58.20
75621;DHT22;64574;48.506;-2.750;2023-05-10T13:19:17;15.70;58.60
75621;DHT22;64574;48.506;-2.750;2023-05-10T13:21:43;15.60;59.10
75621;DHT22;64574;48.506;-2.750;2023-05-10T13:24:10;15.50;58.20
75621;DHT22;64574;48.506;-2.750;2023-05-10T13:26:36;15.50;58.90
75621;DHT22;64574;48.506;-2.750;2023-05-10T13:29:02;15.50;59.10
75621;DHT22;64574;48.506;-2.750;2023-05-10T13:31:28;15.60;59.30
75621;DHT22;64574;48.506;-2.750;2023-05-10T13:33:54;15.80;58.70
75621;DHT22;64574;48.506;-2.750;2023-05-10T13:36:20;16.00;58.40
75621;DHT22;64574;48.506;-2.750;2023-05-10T13:38:46;15.90;58.40
75621;DHT22;64574;48.506;-2.750;2023-05-10T13:41:11;16.00;57.80
75621;DHT22;64574;48.506;-2.750;2023-05-10T13:43:37;15.80;58.40
75621;DHT22;64574;48.506;-2.750;2023-05-10T13:46:02;15.90;58.90
75621;DHT22;64574;48.506;-2.750;2023-05-10T13:48:28;15.90;58.90
75621;DHT22;64574;48.506;-2.750;2023-05-10T13:50:54;15.80;57.80
75621;DHT22;64574;48.506;-2.750;2023-05-10T13:53:20;15.70;57.90
75621;DHT22;64574;48.506;-2.750;2023-05-10T13:55:46;15.80;57.80
75621;DHT22;64574;48.506;-2.750;2023-05-10T13:58:12;15.80;57.60
75621;DHT22;64574;48.506;-2.750;2023-05-10T14:00:38;15.80;57.10
75621;DHT22;64574;48.506;-2.750;2023-05-10T14:03:04;15.90;56.80
75621;DHT22;64574;48.506;-2.750;2023-05-10T14:05:31;16.00;56.80
75621;DHT22;64574;48.506;-2.750;2023-05-10T14:07:58;15.90;56.50
75621;DHT22;64574;48.506;-2.750;2023-05-10T14:10:23;16.00;56.10
75621;DHT22;64574;48.506;-2.750;2023-05-10T14:12:49;15.80;56.60
75621;DHT22;64574;48.506;-2.750;2023-05-10T14:15:15;16.00;56.30
75621;DHT22;64574;48.506;-2.750;2023-05-10T14:17:41;15.80;56.60
75621;DHT22;64574;48.506;-2.750;2023-05-10T14:20:07;16.10;56.90
75621;DHT22;64574;48.506;-2.750;2023-05-10T14:22:33;16.10;56.20
75621;DHT22;64574;48.506;-2.750;2023-05-10T14:24:58;16.10;56.30
75621;DHT22;64574;48.506;-2.750;2023-05-10T14:27:24;16.40;55.90
75621;DHT22;64574;48.506;-2.750;2023-05-10T14:29:50;16.10;55.40
75621;DHT22;64574;48.506;-2.750;2023-05-10T14:32:15;15.80;56.10
75621;DHT22;64574;48.506;-2.750;2023-05-10T14:34:41;15.80;55.90
75621;DHT22;64574;48.506;-2.750;2023-05-10T14:37:06;15.80;56.20
75621;DHT22;64574;48.506;-2.750;2023-05-10T14:39:32;16.00;56.60
75621;DHT22;64574;48.506;-2.750;2023-05-10T14:41:58;16.10;56.00
75621;DHT22;64574;48.506;-2.750;2023-05-10T14:44:24;16.00;55.80
75621;DHT22;64574;48.506;-2.750;2023-05-10T14:46:50;15.70;56.20
75621;DHT22;64574;48.506;-2.750;2023-05-10T14:49:16;16.00;56.30
75621;DHT22;64574;48.506;-2.750;2023-05-10T14:51:41;16.10;55.40
75621;DHT22;64574;48.506;-2.750;2023-05-10T14:54:07;16.20;55.30
75621;DHT22;64574;48.506;-2.750;2023-05-10T14:56:32;16.40;55.30
75621;DHT22;64574;48.506;-2.750;2023-05-10T14:58:58;16.60;55.60
75621;DHT22;64574;48.506;-2.750;2023-05-10T15:01:25;16.60;55.00
75621;DHT22;64574;48.506;-2.750;2023-05-10T15:03:51;16.40;55.40
75621;DHT22;64574;48.506;-2.750;2023-05-10T15:06:16;16.10;56.20
75621;DHT22;64574;48.506;-2.750;2023-05-10T15:08:42;15.90;56.90
75621;DHT22;64574;48.506;-2.750;2023-05-10T15:11:08;16.30;56.60
75621;DHT22;64574;48.506;-2.750;2023-05-10T15:13:34;16.50;55.00
75621;DHT22;64574;48.506;-2.750;2023-05-10T15:15:59;16.40;56.10
75621;DHT22;64574;48.506;-2.750;2023-05-10T15:18:25;16.50;55.40
75621;DHT22;64574;48.506;-2.750;2023-05-10T15:20:51;16.60;55.00
75621;DHT22;64574;48.506;-2.750;2023-05-10T15:23:16;16.80;55.10
75621;DHT22;64574;48.506;-2.750;2023-05-10T15:25:42;16.60;55.80
75621;DHT22;64574;48.506;-2.750;2023-05-10T15:28:08;16.80;55.70
75621;DHT22;64574;48.506;-2.750;2023-05-10T15:30:33;16.60;55.50
75621;DHT22;64574;48.506;-2.750;2023-05-10T15:32:59;16.70;55.50
75621;DHT22;64574;48.506;-2.750;2023-05-10T15:35:26;16.60;55.80
75621;DHT22;64574;48.506;-2.750;2023-05-10T15:37:52;16.60;56.20
75621;DHT22;64574;48.506;-2.750;2023-05-10T15:40:18;16.60;57.00
75621;DHT22;64574;48.506;-2.750;2023-05-10T15:42:43;17.00;56.20
75621;DHT22;64574;48.506;-2.750;2023-05-10T15:45:10;16.80;55.70
75621;DHT22;64574;48.506;-2.750;2023-05-10T15:47:36;16.90;56.20
75621;DHT22;64574;48.506;-2.750;2023-05-10T15:50:01;17.00;55.50
75621;DHT22;64574;48.506;-2.750;2023-05-10T15:52:27;17.10;55.70
75621;DHT22;64574;48.506;-2.750;2023-05-10T15:54:53;17.00;54.80
75621;DHT22;64574;48.506;-2.750;2023-05-10T15:57:19;16.80;55.00
75621;DHT22;64574;48.506;-2.750;2023-05-10T15:59:44;16.50;56.10
75621;DHT22;64574;48.506;-2.750;2023-05-10T16:02:10;16.60;56.20